<?xml version="1.0" encoding="UTF-8" standalone="no" ?>
<gpx xmlns="http://www.topografix.com/GPX/1/1" xmlns:xsi="http://www.w3.org/2001/XMLSchema-instance" xsi:schemaLocation="http://www.topografix.com/GPX/1/1 http://www.topografix.com/GPX/1/1/gpx.xsd" version="1.1" creator="VisuGPX - https://www.visugpx.com">
  <metadata>
    <name>Malestroit_Riviere_14.3km</name>
    <desc><![CDATA[gnerando idor:7073471]]></desc>
  </metadata>
  <trk>
    <name><![CDATA[Malestroit_Riviere_14.3km-7073471]]></name>
    <extensions>
      <line xmlns="http://www.topografix.com/GPX/gpx_style/0/2">
        <color>0000FF</color>
        <width>4</width>
      </line>
    </extensions>
    <trkseg>
      <trkpt lat="47.81012" lon="-2.3839">
        <ele>20</ele>
        <time>2023-11-05T12:14:16Z</time>
      </trkpt>
      <trkpt lat="47.80971" lon="-2.38263">
        <ele>20</ele>
        <time>2023-11-05T12:16:22Z</time>
      </trkpt>
      <trkpt lat="47.80994" lon="-2.3815">
        <ele>17</ele>
        <time>2023-11-05T12:18:08Z</time>
      </trkpt>
      <trkpt lat="47.81049" lon="-2.38019">
        <ele>16</ele>
        <time>2023-11-05T12:20:27Z</time>
      </trkpt>
      <trkpt lat="47.81057" lon="-2.37915">
        <ele>15</ele>
        <time>2023-11-05T12:22:00Z</time>
      </trkpt>
      <trkpt lat="47.81088" lon="-2.37887">
        <ele>15</ele>
        <time>2023-11-05T12:22:49Z</time>
      </trkpt>
      <trkpt lat="47.811" lon="-2.37782">
        <ele>17</ele>
        <time>2023-11-05T12:24:24Z</time>
      </trkpt>
      <trkpt lat="47.81149" lon="-2.37782">
        <ele>18</ele>
        <time>2023-11-05T12:25:30Z</time>
      </trkpt>
      <trkpt lat="47.81214" lon="-2.37742">
        <ele>21</ele>
        <time>2023-11-05T12:27:03Z</time>
      </trkpt>
      <trkpt lat="47.81311" lon="-2.37652">
        <ele>23</ele>
        <time>2023-11-05T12:29:36Z</time>
      </trkpt>
      <trkpt lat="47.81457" lon="-2.37591">
        <ele>26</ele>
        <time>2023-11-05T12:32:58Z</time>
      </trkpt>
      <trkpt lat="47.81472" lon="-2.37644">
        <ele>23</ele>
        <time>2023-11-05T12:33:50Z</time>
      </trkpt>
      <trkpt lat="47.81693" lon="-2.37673">
        <ele>24</ele>
        <time>2023-11-05T12:38:46Z</time>
      </trkpt>
      <trkpt lat="47.81799" lon="-2.37772">
        <ele>20</ele>
        <time>2023-11-05T12:41:33Z</time>
      </trkpt>
      <trkpt lat="47.81883" lon="-2.37961">
        <ele>20</ele>
        <time>2023-11-05T12:44:56Z</time>
      </trkpt>
      <trkpt lat="47.81992" lon="-2.38171">
        <ele>19</ele>
        <time>2023-11-05T12:48:54Z</time>
      </trkpt>
      <trkpt lat="47.82079" lon="-2.3821">
        <ele>16</ele>
        <time>2023-11-05T12:50:55Z</time>
      </trkpt>
      <trkpt lat="47.82106" lon="-2.38266">
        <ele>14</ele>
        <time>2023-11-05T12:51:57Z</time>
      </trkpt>
      <trkpt lat="47.82188" lon="-2.38245">
        <ele>17</ele>
        <time>2023-11-05T12:53:48Z</time>
      </trkpt>
      <trkpt lat="47.82254" lon="-2.38255">
        <ele>18</ele>
        <time>2023-11-05T12:55:16Z</time>
      </trkpt>
      <trkpt lat="47.82393" lon="-2.38158">
        <ele>18</ele>
        <time>2023-11-05T12:58:41Z</time>
      </trkpt>
      <trkpt lat="47.8239" lon="-2.38364">
        <ele>15</ele>
        <time>2023-11-05T13:01:46Z</time>
      </trkpt>
      <trkpt lat="47.82344" lon="-2.38521">
        <ele>15</ele>
        <time>2023-11-05T13:04:19Z</time>
      </trkpt>
      <trkpt lat="47.82376" lon="-2.38703">
        <ele>14</ele>
        <time>2023-11-05T13:07:08Z</time>
      </trkpt>
      <trkpt lat="47.82644" lon="-2.38558">
        <ele>15</ele>
        <time>2023-11-05T13:13:28Z</time>
      </trkpt>
      <trkpt lat="47.82701" lon="-2.38838">
        <ele>16</ele>
        <time>2023-11-05T13:17:51Z</time>
      </trkpt>
      <trkpt lat="47.82724" lon="-2.3909">
        <ele>15</ele>
        <time>2023-11-05T13:21:38Z</time>
      </trkpt>
      <trkpt lat="47.82856" lon="-2.39029">
        <ele>15</ele>
        <time>2023-11-05T13:24:43Z</time>
      </trkpt>
      <trkpt lat="47.82954" lon="-2.38992">
        <ele>15</ele>
        <time>2023-11-05T13:26:58Z</time>
      </trkpt>
      <trkpt lat="47.83095" lon="-2.39031">
        <ele>16</ele>
        <time>2023-11-05T13:30:09Z</time>
      </trkpt>
      <trkpt lat="47.83222" lon="-2.39034">
        <ele>20</ele>
        <time>2023-11-05T13:32:59Z</time>
      </trkpt>
      <trkpt lat="47.83261" lon="-2.39105">
        <ele>19</ele>
        <time>2023-11-05T13:34:21Z</time>
      </trkpt>
      <trkpt lat="47.83231" lon="-2.39151">
        <ele>18</ele>
        <time>2023-11-05T13:35:18Z</time>
      </trkpt>
      <trkpt lat="47.83236" lon="-2.39238">
        <ele>15</ele>
        <time>2023-11-05T13:36:36Z</time>
      </trkpt>
      <trkpt lat="47.83214" lon="-2.39283">
        <ele>15</ele>
        <time>2023-11-05T13:37:26Z</time>
      </trkpt>
      <trkpt lat="47.83358" lon="-2.39296">
        <ele>19</ele>
        <time>2023-11-05T13:40:39Z</time>
      </trkpt>
      <trkpt lat="47.83511" lon="-2.39377">
        <ele>23</ele>
        <time>2023-11-05T13:44:16Z</time>
      </trkpt>
      <trkpt lat="47.83594" lon="-2.39519">
        <ele>22</ele>
        <time>2023-11-05T13:47:04Z</time>
      </trkpt>
      <trkpt lat="47.83643" lon="-2.39793">
        <ele>21</ele>
        <time>2023-11-05T13:51:18Z</time>
      </trkpt>
      <trkpt lat="47.83672" lon="-2.39845">
        <ele>22</ele>
        <time>2023-11-05T13:52:19Z</time>
      </trkpt>
      <trkpt lat="47.83738" lon="-2.39905">
        <ele>22</ele>
        <time>2023-11-05T13:54:02Z</time>
      </trkpt>
      <trkpt lat="47.83799" lon="-2.40008">
        <ele>23</ele>
        <time>2023-11-05T13:56:05Z</time>
      </trkpt>
      <trkpt lat="47.83661" lon="-2.40038">
        <ele>16</ele>
        <time>2023-11-05T13:59:11Z</time>
      </trkpt>
      <trkpt lat="47.83617" lon="-2.40678">
        <ele>15</ele>
        <time>2023-11-05T14:08:47Z</time>
      </trkpt>
      <trkpt lat="47.83685" lon="-2.41201">
        <ele>20</ele>
        <time>2023-11-05T14:16:45Z</time>
      </trkpt>
      <trkpt lat="47.83747" lon="-2.41218">
        <ele>23</ele>
        <time>2023-11-05T14:18:09Z</time>
      </trkpt>
      <trkpt lat="47.83748" lon="-2.41317">
        <ele>24</ele>
        <time>2023-11-05T14:19:37Z</time>
      </trkpt>
      <trkpt lat="47.83757" lon="-2.41359">
        <ele>24</ele>
        <time>2023-11-05T14:20:17Z</time>
      </trkpt>
      <trkpt lat="47.83787" lon="-2.414">
        <ele>23</ele>
        <time>2023-11-05T14:21:11Z</time>
      </trkpt>
      <trkpt lat="47.8394" lon="-2.41327">
        <ele>25</ele>
        <time>2023-11-05T14:24:46Z</time>
      </trkpt>
      <trkpt lat="47.83924" lon="-2.41468">
        <ele>25</ele>
        <time>2023-11-05T14:26:54Z</time>
      </trkpt>
      <trkpt lat="47.83934" lon="-2.41677">
        <ele>24</ele>
        <time>2023-11-05T14:30:01Z</time>
      </trkpt>
      <trkpt lat="47.83963" lon="-2.41871">
        <ele>23</ele>
        <time>2023-11-05T14:32:59Z</time>
      </trkpt>
      <trkpt lat="47.83995" lon="-2.41903">
        <ele>23</ele>
        <time>2023-11-05T14:33:51Z</time>
      </trkpt>
      <trkpt lat="47.84015" lon="-2.41991">
        <ele>25</ele>
        <time>2023-11-05T14:35:14Z</time>
      </trkpt>
      <trkpt lat="47.84032" lon="-2.42097">
        <ele>27</ele>
        <time>2023-11-05T14:36:52Z</time>
      </trkpt>
      <trkpt lat="47.8419" lon="-2.42483">
        <ele>29</ele>
        <time>2023-11-05T14:43:37Z</time>
      </trkpt>
      <trkpt lat="47.83875" lon="-2.4265">
        <ele>20</ele>
        <time>2023-11-05T14:51:03Z</time>
      </trkpt>
      <trkpt lat="47.83888" lon="-2.42703">
        <ele>21</ele>
        <time>2023-11-05T14:51:53Z</time>
      </trkpt>
      <trkpt lat="47.83908" lon="-2.42711">
        <ele>22</ele>
        <time>2023-11-05T14:52:21Z</time>
      </trkpt>
      <trkpt lat="47.84009" lon="-2.42647">
        <ele>26</ele>
        <time>2023-11-05T14:54:47Z</time>
      </trkpt>
      <trkpt lat="47.84029" lon="-2.42807">
        <ele>25</ele>
        <time>2023-11-05T14:57:13Z</time>
      </trkpt>
      <trkpt lat="47.84022" lon="-2.4283">
        <ele>25</ele>
        <time>2023-11-05T14:57:36Z</time>
      </trkpt>
      <trkpt lat="47.84073" lon="-2.42895">
        <ele>27</ele>
        <time>2023-11-05T14:59:05Z</time>
      </trkpt>
      <trkpt lat="47.84096" lon="-2.42978">
        <ele>28</ele>
        <time>2023-11-05T15:00:26Z</time>
      </trkpt>
      <trkpt lat="47.84069" lon="-2.43128">
        <ele>23</ele>
        <time>2023-11-05T15:02:45Z</time>
      </trkpt>
      <trkpt lat="47.84113" lon="-2.43269">
        <ele>22</ele>
        <time>2023-11-05T15:05:04Z</time>
      </trkpt>
      <trkpt lat="47.84073" lon="-2.43351">
        <ele>18</ele>
        <time>2023-11-05T15:06:35Z</time>
      </trkpt>
      <trkpt lat="47.83473" lon="-2.4227">
        <ele>18</ele>
        <time>2023-11-05T15:27:31Z</time>
      </trkpt>
      <trkpt lat="47.83446" lon="-2.42295">
        <ele>17</ele>
        <time>2023-11-05T15:28:14Z</time>
      </trkpt>
      <trkpt lat="47.83386" lon="-2.42274">
        <ele>17</ele>
        <time>2023-11-05T15:29:36Z</time>
      </trkpt>
      <trkpt lat="47.83234" lon="-2.42317">
        <ele>19</ele>
        <time>2023-11-05T15:33:03Z</time>
      </trkpt>
      <trkpt lat="47.83214" lon="-2.42304">
        <ele>20</ele>
        <time>2023-11-05T15:33:32Z</time>
      </trkpt>
      <trkpt lat="47.83203" lon="-2.42103">
        <ele>21</ele>
        <time>2023-11-05T15:36:32Z</time>
      </trkpt>
      <trkpt lat="47.8318" lon="-2.42045">
        <ele>20</ele>
        <time>2023-11-05T15:37:33Z</time>
      </trkpt>
      <trkpt lat="47.83113" lon="-2.4203">
        <ele>25</ele>
        <time>2023-11-05T15:39:03Z</time>
      </trkpt>
      <trkpt lat="47.83118" lon="-2.41953">
        <ele>22</ele>
        <time>2023-11-05T15:40:12Z</time>
      </trkpt>
      <trkpt lat="47.83105" lon="-2.41905">
        <ele>22</ele>
        <time>2023-11-05T15:40:59Z</time>
      </trkpt>
      <trkpt lat="47.82886" lon="-2.41436">
        <ele>21</ele>
        <time>2023-11-05T15:49:31Z</time>
      </trkpt>
      <trkpt lat="47.82916" lon="-2.41175">
        <ele>19</ele>
        <time>2023-11-05T15:53:28Z</time>
      </trkpt>
      <trkpt lat="47.82942" lon="-2.40964">
        <ele>20</ele>
        <time>2023-11-05T15:56:40Z</time>
      </trkpt>
      <trkpt lat="47.82875" lon="-2.40971">
        <ele>18</ele>
        <time>2023-11-05T15:58:10Z</time>
      </trkpt>
      <trkpt lat="47.82874" lon="-2.40892">
        <ele>19</ele>
        <time>2023-11-05T15:59:20Z</time>
      </trkpt>
      <trkpt lat="47.82531" lon="-2.40407">
        <ele>18</ele>
        <time>2023-11-05T16:09:52Z</time>
      </trkpt>
      <trkpt lat="47.82499" lon="-2.40246">
        <ele>17</ele>
        <time>2023-11-05T16:12:22Z</time>
      </trkpt>
      <trkpt lat="47.82493" lon="-2.40142">
        <ele>17</ele>
        <time>2023-11-05T16:13:55Z</time>
      </trkpt>
      <trkpt lat="47.82461" lon="-2.40064">
        <ele>18</ele>
        <time>2023-11-05T16:15:17Z</time>
      </trkpt>
      <trkpt lat="47.82464" lon="-2.40016">
        <ele>18</ele>
        <time>2023-11-05T16:16:01Z</time>
      </trkpt>
      <trkpt lat="47.8244" lon="-2.39953">
        <ele>17</ele>
        <time>2023-11-05T16:17:05Z</time>
      </trkpt>
      <trkpt lat="47.82419" lon="-2.39931">
        <ele>16</ele>
        <time>2023-11-05T16:17:40Z</time>
      </trkpt>
      <trkpt lat="47.81239" lon="-2.38362">
        <ele>13</ele>
        <time>2023-11-05T16:52:51Z</time>
      </trkpt>
      <trkpt lat="47.81195" lon="-2.383">
        <ele>15</ele>
        <time>2023-11-05T16:54:12Z</time>
      </trkpt>
      <trkpt lat="47.8117" lon="-2.3834">
        <ele>16</ele>
        <time>2023-11-05T16:55:01Z</time>
      </trkpt>
      <trkpt lat="47.81091" lon="-2.3838">
        <ele>18</ele>
        <time>2023-11-05T16:56:52Z</time>
      </trkpt>
      <trkpt lat="47.81067" lon="-2.38338">
        <ele>18</ele>
        <time>2023-11-05T16:57:41Z</time>
      </trkpt>
      <trkpt lat="47.81023" lon="-2.38374">
        <ele>20</ele>
        <time>2023-11-05T16:58:48Z</time>
      </trkpt>
      <trkpt lat="47.81016" lon="-2.38396">
        <ele>20</ele>
        <time>2023-11-05T16:59:10Z</time>
      </trkpt>
    </trkseg>
  </trk>
</gpx>